sensor_id;sensor_type;location;lat;lon;timestamp;pressure;altitude;pressure_sealevel;temperature;humidity
7170;BME280;3626;42.656;23.312;2023-02-22T00:00:04;94525.34;;;7.10;51.42
7170;BME280;3626;42.656;23.312;2023-02-22T00:00:14;94524.53;;;7.10;51.12
7170;BME280;3626;42.656;23.312;2023-02-22T00:00:27;94526.41;;;7.08;51.22
7170;BME280;3626;42.656;23.312;2023-02-22T00:00:47;94532.50;;;7.07;51.65
7170;BME280;3626;42.656;23.312;2023-02-22T00:00:54;94524.81;;;7.07;51.72
7170;BME280;3626;42.656;23.312;2023-02-22T00:01:04;94531.56;;;7.08;51.78
7170;BME280;3626;42.656;23.312;2023-02-22T00:01:23;94527.09;;;7.10;51.30
7170;BME280;3626;42.656;23.312;2023-02-22T00:01:39;94528.81;;;7.09;51.40
7170;BME280;3626;42.656;23.312;2023-02-22T00:01:55;94535.38;;;7.04;51.50
7170;BME280;3626;42.656;23.312;2023-02-22T00:02:17;94537.28;;;7.01;51.58
7170;BME280;3626;42.656;23.312;2023-02-22T00:02:31;94536.78;;;6.98;52.11
7170;BME280;3626;42.656;23.312;2023-02-22T00:02:38;94542.69;;;6.98;51.79
7170;BME280;3626;42.656;23.312;2023-02-22T00:02:45;94540.13;;;6.98;51.76
7170;BME280;3626;42.656;23.312;2023-02-22T00:02:53;94532.44;;;6.98;52.14
7170;BME280;3626;42.656;23.312;2023-02-22T00:03:04;94537.56;;;6.98;52.09
7170;BME280;3626;42.656;23.312;2023-02-22T00:03:11;94536.09;;;6.96;52.15
7170;BME280;3626;42.656;23.312;2023-02-22T00:03:19;94541.38;;;6.94;51.89
7170;BME280;3626;42.656;23.312;2023-02-22T00:03:30;94539.09;;;6.91;51.86
7170;BME280;3626;42.656;23.312;2023-02-22T00:03:36;94540.06;;;6.90;51.95
7170;BME280;3626;42.656;23.312;2023-02-22T00:03:47;94535.72;;;6.91;51.86
7170;BME280;3626;42.656;23.312;2023-02-22T00:03:53;94541.66;;;6.91;51.85
7170;BME280;3626;42.656;23.312;2023-02-22T00:03:59;94536.69;;;6.90;52.20
7170;BME280;3626;42.656;23.312;2023-02-22T00:04:06;94539.41;;;6.88;52.06
7170;BME280;3626;42.656;23.312;2023-02-22T00:04:12;94540.22;;;6.89;51.97
7170;BME280;3626;42.656;23.312;2023-02-22T00:04:18;94540.34;;;6.87;51.97
7170;BME280;3626;42.656;23.312;2023-02-22T00:04:25;94541.13;;;6.88;52.00
7170;BME280;3626;42.656;23.312;2023-02-22T00:04:32;94544.53;;;6.88;51.92
7170;BME280;3626;42.656;23.312;2023-02-22T00:04:40;94539.53;;;6.87;52.20
7170;BME280;3626;42.656;23.312;2023-02-22T00:04:46;94538.56;;;6.88;51.90
7170;BME280;3626;42.656;23.312;2023-02-22T00:04:52;94540.34;;;6.87;52.07
7170;BME280;3626;42.656;23.312;2023-02-22T00:04:58;94541.97;;;6.88;51.96
7170;BME280;3626;42.656;23.312;2023-02-22T00:05:04;94541.28;;;6.86;52.09
7170;BME280;3626;42.656;23.312;2023-02-22T00:05:10;94538.72;;;6.86;52.77
7170;BME280;3626;42.656;23.312;2023-02-22T00:05:17;94546.28;;;6.88;52.38
7170;BME280;3626;42.656;23.312;2023-02-22T00:05:25;94546.28;;;6.88;52.33
7170;BME280;3626;42.656;23.312;2023-02-22T00:05:32;94551.41;;;6.88;51.76
7170;BME280;3626;42.656;23.312;2023-02-22T00:05:37;94544.53;;;6.88;51.98
7170;BME280;3626;42.656;23.312;2023-02-22T00:05:45;94542.91;;;6.87;52.42
7170;BME280;3626;42.656;23.312;2023-02-22T00:05:52;94546.44;;;6.86;52.33
7170;BME280;3626;42.656;23.312;2023-02-22T00:06:00;94547.38;;;6.85;52.12
7170;BME280;3626;42.656;23.312;2023-02-22T00:06:15;94550.38;;;6.81;52.50
7170;BME280;3626;42.656;23.312;2023-02-22T00:06:24;94546.06;;;6.81;52.45
7170;BME280;3626;42.656;23.312;2023-02-22T00:06:30;94554.56;;;6.82;52.52
7170;BME280;3626;42.656;23.312;2023-02-22T00:06:36;94551.19;;;6.81;52.62
7170;BME280;3626;42.656;23.312;2023-02-22T00:06:41;94551.19;;;6.81;52.52
7170;BME280;3626;42.656;23.312;2023-02-22T00:06:47;94547.66;;;6.82;52.52
7170;BME280;3626;42.656;23.312;2023-02-22T00:06:54;94542.69;;;6.81;52.21
7170;BME280;3626;42.656;23.312;2023-02-22T00:06:59;94552.00;;;6.82;52.35
7170;BME280;3626;42.656;23.312;2023-02-22T00:07:07;94549.59;;;6.80;52.40
7170;BME280;3626;42.656;23.312;2023-02-22T00:07:12;94545.25;;;6.81;52.40
7170;BME280;3626;42.656;23.312;2023-02-22T00:07:19;94559.84;;;6.80;52.14
7170;BME280;3626;42.656;23.312;2023-02-22T00:07:25;94550.50;;;6.79;52.09
7170;BME280;3626;42.656;23.312;2023-02-22T00:07:32;94553.88;;;6.80;52.19
7170;BME280;3626;42.656;23.312;2023-02-22T00:07:38;94549.72;;;6.79;52.55
7170;BME280;3626;42.656;23.312;2023-02-22T00:07:44;94549.72;;;6.79;52.41
7170;BME280;3626;42.656;23.312;2023-02-22T00:07:49;94549.72;;;6.79;52.87
7170;BME280;3626;42.656;23.312;2023-02-22T00:07:55;94551.47;;;6.78;52.63
7170;BME280;3626;42.656;23.312;2023-02-22T00:08:01;94544.72;;;6.77;52.77
7170;BME280;3626;42.656;23.312;2023-02-22T00:08:07;94556.59;;;6.78;52.33
7170;BME280;3626;42.656;23.312;2023-02-22T00:08:15;94556.59;;;6.78;52.49
7170;BME280;3626;42.656;23.312;2023-02-22T00:08:23;94555.78;;;6.78;52.71
7170;BME280;3626;42.656;23.312;2023-02-22T00:08:30;94557.56;;;6.77;52.32
7170;BME280;3626;42.656;23.312;2023-02-22T00:08:36;94557.56;;;6.77;52.60
7170;BME280;3626;42.656;23.312;2023-02-22T00:08:42;94551.63;;;6.76;52.65
7170;BME280;3626;42.656;23.312;2023-02-22T00:08:48;94558.38;;;6.78;52.54
7170;BME280;3626;42.656;23.312;2023-02-22T00:08:55;94557.56;;;6.77;52.52
7170;BME280;3626;42.656;23.312;2023-02-22T00:09:01;94555.94;;;6.76;52.62
7170;BME280;3626;42.656;23.312;2023-02-22T00:09:06;94556.75;;;6.76;52.76
7170;BME280;3626;42.656;23.312;2023-02-22T00:09:13;94550.81;;;6.76;52.79
7170;BME280;3626;42.656;23.312;2023-02-22T00:09:24;94556.06;;;6.74;52.87
7170;BME280;3626;42.656;23.312;2023-02-22T00:09:33;94551.75;;;6.75;52.37
7170;BME280;3626;42.656;23.312;2023-02-22T00:09:38;94555.16;;;6.75;52.52
7170;BME280;3626;42.656;23.312;2023-02-22T00:09:44;94553.50;;;6.74;52.58
7170;BME280;3626;42.656;23.312;2023-02-22T00:09:50;94552.72;;;6.74;52.82
7170;BME280;3626;42.656;23.312;2023-02-22T00:09:56;94556.88;;;6.75;52.67
7170;BME280;3626;42.656;23.312;2023-02-22T00:10:01;94559.44;;;6.75;52.73
7170;BME280;3626;42.656;23.312;2023-02-22T00:10:07;94552.59;;;6.75;52.96
7170;BME280;3626;42.656;23.312;2023-02-22T00:10:18;94555.94;;;6.76;52.89
7170;BME280;3626;42.656;23.312;2023-02-22T00:10:25;94557.56;;;6.77;52.89
7170;BME280;3626;42.656;23.312;2023-02-22T00:10:32;94557.56;;;6.77;52.74
7170;BME280;3626;42.656;23.312;2023-02-22T00:10:38;94555.00;;;6.77;52.50
7170;BME280;3626;42.656;23.312;2023-02-22T00:10:44;94555.00;;;6.77;52.81
7170;BME280;3626;42.656;23.312;2023-02-22T00:10:50;94552.44;;;6.77;52.92
7170;BME280;3626;42.656;23.312;2023-02-22T00:10:56;94552.28;;;6.79;52.49
7170;BME280;3626;42.656;23.312;2023-02-22T00:11:05;94555.00;;;6.77;52.53
7170;BME280;3626;42.656;23.312;2023-02-22T00:11:12;94559.16;;;6.78;52.72
7170;BME280;3626;42.656;23.312;2023-02-22T00:11:19;94557.41;;;6.79;53.02
7170;BME280;3626;42.656;23.312;2023-02-22T00:11:25;94553.22;;;6.78;52.70
7170;BME280;3626;42.656;23.312;2023-02-22T00:11:33;94551.47;;;6.78;53.08
7170;BME280;3626;42.656;23.312;2023-02-22T00:11:44;94560.94;;;6.78;52.83
7170;BME280;3626;42.656;23.312;2023-02-22T00:11:50;94550.66;;;6.78;52.42
7170;BME280;3626;42.656;23.312;2023-02-22T00:11:56;94557.56;;;6.77;52.78
7170;BME280;3626;42.656;23.312;2023-02-22T00:12:03;94555.94;;;6.76;52.87
7170;BME280;3626;42.656;23.312;2023-02-22T00:12:09;94557.84;;;6.74;52.78
7170;BME280;3626;42.656;23.312;2023-02-22T00:12:14;94562.31;;;6.72;53.30
7170;BME280;3626;42.656;23.312;2023-02-22T00:12:20;94553.81;;;6.71;52.90
7170;BME280;3626;42.656;23.312;2023-02-22T00:12:26;94559.75;;;6.72;53.20
7170;BME280;3626;42.656;23.312;2023-02-22T00:12:33;94558.94;;;6.71;53.03
7170;BME280;3626;42.656;23.312;2023-02-22T00:12:40;94561.66;;;6.70;53.47
7170;BME280;3626;42.656;23.312;2023-02-22T00:12:46;94556.66;;;6.68;53.34
7170;BME280;3626;42.656;23.312;2023-02-22T00:12:54;94560.19;;;6.67;53.21
7170;BME280;3626;42.656;23.312;2023-02-22T00:12:59;94560.31;;;6.66;53.40
7170;BME280;3626;42.656;23.312;2023-02-22T00:13:07;94561.28;;;6.65;53.02
7170;BME280;3626;42.656;23.312;2023-02-22T00:13:14;94559.50;;;6.65;53.14
7170;BME280;3626;42.656;23.312;2023-02-22T00:13:19;94563.84;;;6.65;53.35
7170;BME280;3626;42.656;23.312;2023-02-22T00:13:28;94558.88;;;6.63;53.51
7170;BME280;3626;42.656;23.312;2023-02-22T00:13:34;94561.44;;;6.63;53.38
7170;BME280;3626;42.656;23.312;2023-02-22T00:13:41;94560.63;;;6.63;53.03
7170;BME280;3626;42.656;23.312;2023-02-22T00:13:51;94556.56;;;6.60;53.29
7170;BME280;3626;42.656;23.312;2023-02-22T00:13:56;94561.56;;;6.62;53.26
7170;BME280;3626;42.656;23.312;2023-02-22T00:14:02;94559.00;;;6.62;53.23
7170;BME280;3626;42.656;23.312;2023-02-22T00:14:08;94560.91;;;6.60;53.18
7170;BME280;3626;42.656;23.312;2023-02-22T00:14:14;94562.66;;;6.59;53.34
7170;BME280;3626;42.656;23.312;2023-02-22T00:14:19;94560.22;;;6.58;53.37
7170;BME280;3626;42.656;23.312;2023-02-22T00:14:25;94562.78;;;6.58;53.48
7170;BME280;3626;42.656;23.312;2023-02-22T00:14:31;94558.78;;;6.55;53.76
7170;BME280;3626;42.656;23.312;2023-02-22T00:14:37;94559.56;;;6.56;53.49
7170;BME280;3626;42.656;23.312;2023-02-22T00:14:44;94564.69;;;6.56;53.49
7170;BME280;3626;42.656;23.312;2023-02-22T00:14:51;94561.34;;;6.55;53.51
7170;BME280;3626;42.656;23.312;2023-02-22T00:14:57;94564.69;;;6.56;53.20
7170;BME280;3626;42.656;23.312;2023-02-22T00:15:03;94560.53;;;6.55;53.32
7170;BME280;3626;42.656;23.312;2023-02-22T00:15:10;94567.25;;;6.56;53.52
7170;BME280;3626;42.656;23.312;2023-02-22T00:15:20;94564.69;;;6.56;53.92
7170;BME280;3626;42.656;23.312;2023-02-22T00:15:26;94575.91;;;6.55;53.68
7170;BME280;3626;42.656;23.312;2023-02-22T00:15:31;94565.94;;;6.51;53.54
7170;BME280;3626;42.656;23.312;2023-02-22T00:15:38;94567.81;;;6.49;53.66
7170;BME280;3626;42.656;23.312;2023-02-22T00:15:45;94566.22;;;6.48;53.74
7170;BME280;3626;42.656;23.312;2023-02-22T00:15:51;94568.66;;;6.50;53.73
7170;BME280;3626;42.656;23.312;2023-02-22T00:15:57;94569.44;;;6.50;53.98
7170;BME280;3626;42.656;23.312;2023-02-22T00:16:05;94561.75;;;6.50;53.48
7170;BME280;3626;42.656;23.312;2023-02-22T00:16:13;94565.94;;;6.51;54.01
7170;BME280;3626;42.656;23.312;2023-02-22T00:16:20;94560.00;;;6.51;53.70
7170;BME280;3626;42.656;23.312;2023-02-22T00:16:26;94566.59;;;6.54;53.64
7170;BME280;3626;42.656;23.312;2023-02-22T00:16:32;94562.41;;;6.53;53.70
7170;BME280;3626;42.656;23.312;2023-02-22T00:16:38;94563.22;;;6.53;53.80
7170;BME280;3626;42.656;23.312;2023-02-22T00:16:43;94563.22;;;6.53;53.56
7170;BME280;3626;42.656;23.312;2023-02-22T00:16:49;94567.53;;;6.53;53.80
7170;BME280;3626;42.656;23.312;2023-02-22T00:16:55;94563.22;;;6.53;53.89
7170;BME280;3626;42.656;23.312;2023-02-22T00:17:03;94565.94;;;6.51;53.66
7170;BME280;3626;42.656;23.312;2023-02-22T00:17:09;94572.66;;;6.53;54.07
7170;BME280;3626;42.656;23.312;2023-02-22T00:17:17;94568.34;;;6.53;53.92
7170;BME280;3626;42.656;23.312;2023-02-22T00:17:24;94558.09;;;6.53;53.97
7170;BME280;3626;42.656;23.312;2023-02-22T00:17:31;94563.22;;;6.53;53.54
7170;BME280;3626;42.656;23.312;2023-02-22T00:17:38;94568.34;;;6.53;53.48
7170;BME280;3626;42.656;23.312;2023-02-22T00:17:44;94562.41;;;6.53;53.71
7170;BME280;3626;42.656;23.312;2023-02-22T00:17:50;94567.53;;;6.53;53.74
7170;BME280;3626;42.656;23.312;2023-02-22T00:17:58;94570.09;;;6.53;53.85
7170;BME280;3626;42.656;23.312;2023-02-22T00:18:04;94565.94;;;6.51;53.95
7170;BME280;3626;42.656;23.312;2023-02-22T00:18:14;94564.31;;;6.50;53.72
7170;BME280;3626;42.656;23.312;2023-02-22T00:18:20;94570.25;;;6.51;53.38
7170;BME280;3626;42.656;23.312;2023-02-22T00:18:28;94569.44;;;6.50;53.82
7170;BME280;3626;42.656;23.312;2023-02-22T00:18:34;94568.66;;;6.50;53.80
7170;BME280;3626;42.656;23.312;2023-02-22T00:18:40;94565.13;;;6.51;53.91
7170;BME280;3626;42.656;23.312;2023-02-22T00:18:48;94571.88;;;6.52;54.00
7170;BME280;3626;42.656;23.312;2023-02-22T00:18:54;94567.53;;;6.53;53.65
7170;BME280;3626;42.656;23.312;2023-02-22T00:19:00;94570.09;;;6.53;53.94
7170;BME280;3626;42.656;23.312;2023-02-22T00:19:06;94570.91;;;6.53;53.71
7170;BME280;3626;42.656;23.312;2023-02-22T00:19:12;94569.16;;;6.54;54.06
7170;BME280;3626;42.656;23.312;2023-02-22T00:19:17;94576.03;;;6.53;53.73
7170;BME280;3626;42.656;23.312;2023-02-22T00:19:24;94568.34;;;6.53;53.85
7170;BME280;3626;42.656;23.312;2023-02-22T00:19:32;94573.47;;;6.53;54.19
7170;BME280;3626;42.656;23.312;2023-02-22T00:19:38;94570.09;;;6.53;54.01
7170;BME280;3626;42.656;23.312;2023-02-22T00:19:44;94564.31;;;6.50;54.01
7170;BME280;3626;42.656;23.312;2023-02-22T00:19:49;94565.94;;;6.51;54.01
7170;BME280;3626;42.656;23.312;2023-02-22T00:19:55;94564.31;;;6.50;53.96
7170;BME280;3626;42.656;23.312;2023-02-22T00:20:01;94570.25;;;6.51;54.09
7170;BME280;3626;42.656;23.312;2023-02-22T00:20:11;94571.22;;;6.50;54.05
7170;BME280;3626;42.656;23.312;2023-02-22T00:20:19;94568.78;;;6.48;53.82
7170;BME280;3626;42.656;23.312;2023-02-22T00:20:27;94569.72;;;6.47;54.10
7170;BME280;3626;42.656;23.312;2023-02-22T00:20:33;94568.13;;;6.46;54.50
7170;BME280;3626;42.656;23.312;2023-02-22T00:20:39;94575.00;;;6.46;54.15
7170;BME280;3626;42.656;23.312;2023-02-22T00:20:45;94575.94;;;6.45;54.45
7170;BME280;3626;42.656;23.312;2023-02-22T00:20:51;94570.81;;;6.45;54.19
7170;BME280;3626;42.656;23.312;2023-02-22T00:20:59;94571.63;;;6.45;54.14
7170;BME280;3626;42.656;23.312;2023-02-22T00:21:05;94570.81;;;6.45;54.19
7170;BME280;3626;42.656;23.312;2023-02-22T00:21:16;94568.41;;;6.43;54.29
7170;BME280;3626;42.656;23.312;2023-02-22T00:21:25;94565.84;;;6.43;54.29
7170;BME280;3626;42.656;23.312;2023-02-22T00:21:30;94577.69;;;6.44;54.16
7170;BME280;3626;42.656;23.312;2023-02-22T00:21:36;94571.75;;;6.44;54.23
7170;BME280;3626;42.656;23.312;2023-02-22T00:21:42;94575.28;;;6.43;54.37
7170;BME280;3626;42.656;23.312;2023-02-22T00:21:51;94578.66;;;6.43;54.33
7170;BME280;3626;42.656;23.312;2023-02-22T00:21:57;94573.53;;;6.43;54.45
7170;BME280;3626;42.656;23.312;2023-02-22T00:22:04;94569.34;;;6.42;54.07
7170;BME280;3626;42.656;23.312;2023-02-22T00:22:10;94569.34;;;6.42;54.46
7170;BME280;3626;42.656;23.312;2023-02-22T00:22:15;94567.06;;;6.39;54.32
7170;BME280;3626;42.656;23.312;2023-02-22T00:22:23;94573.16;;;6.38;54.35
7170;BME280;3626;42.656;23.312;2023-02-22T00:22:29;94572.34;;;6.38;54.37
7170;BME280;3626;42.656;23.312;2023-02-22T00:22:34;94571.53;;;6.37;54.37
7170;BME280;3626;42.656;23.312;2023-02-22T00:22:41;94577.47;;;6.38;54.56
7170;BME280;3626;42.656;23.312;2023-02-22T00:22:47;94576.78;;;6.36;54.82
7170;BME280;3626;42.656;23.312;2023-02-22T00:22:55;94572.47;;;6.36;54.39
7170;BME280;3626;42.656;23.312;2023-02-22T00:23:02;94572.78;;;6.33;54.74
7170;BME280;3626;42.656;23.312;2023-02-22T00:23:14;94578.81;;;6.32;54.85
7170;BME280;3626;42.656;23.312;2023-02-22T00:23:21;94580.47;;;6.33;54.73
7170;BME280;3626;42.656;23.312;2023-02-22T00:23:28;94577.91;;;6.33;54.73
7170;BME280;3626;42.656;23.312;2023-02-22T00:23:35;94576.13;;;6.34;54.92
7170;BME280;3626;42.656;23.312;2023-02-22T00:23:45;94571.66;;;6.36;54.70
7170;BME280;3626;42.656;23.312;2023-02-22T00:23:51;94576.78;;;6.36;54.92
7170;BME280;3626;42.656;23.312;2023-02-22T00:23:58;94570.88;;;6.35;54.82
7170;BME280;3626;42.656;23.312;2023-02-22T00:24:04;94581.91;;;6.36;54.66
7170;BME280;3626;42.656;23.312;2023-02-22T00:24:27;94578.56;;;6.35;54.93
7170;BME280;3626;42.656;23.312;2023-02-22T00:24:33;94576.78;;;6.36;54.54
7170;BME280;3626;42.656;23.312;2023-02-22T00:24:40;94576.94;;;6.34;54.76
7170;BME280;3626;42.656;23.312;2023-02-22T00:24:46;94579.50;;;6.34;54.88
7170;BME280;3626;42.656;23.312;2023-02-22T00:24:52;94580.31;;;6.35;54.73
7170;BME280;3626;42.656;23.312;2023-02-22T00:24:59;94575.19;;;6.35;54.78
7170;BME280;3626;42.656;23.312;2023-02-22T00:25:05;94578.56;;;6.35;54.85
7170;BME280;3626;42.656;23.312;2023-02-22T00:25:11;94576.13;;;6.34;54.71
7170;BME280;3626;42.656;23.312;2023-02-22T00:25:20;94576.13;;;6.34;54.75
7170;BME280;3626;42.656;23.312;2023-02-22T00:25:26;94571.94;;;6.33;55.00
7170;BME280;3626;42.656;23.312;2023-02-22T00:25:32;94572.78;;;6.33;54.47
7170;BME280;3626;42.656;23.312;2023-02-22T00:25:38;94581.38;;;6.32;54.79
7170;BME280;3626;42.656;23.312;2023-02-22T00:25:45;94573.06;;;6.30;55.00
7170;BME280;3626;42.656;23.312;2023-02-22T00:25:51;94576.25;;;6.32;54.79
7170;BME280;3626;42.656;23.312;2023-02-22T00:25:58;94579.63;;;6.33;54.92
7170;BME280;3626;42.656;23.312;2023-02-22T00:26:04;94577.91;;;6.33;55.03
7170;BME280;3626;42.656;23.312;2023-02-22T00:26:11;94577.06;;;6.33;54.87
7170;BME280;3626;42.656;23.312;2023-02-22T00:26:19;94583.94;;;6.32;54.88
7170;BME280;3626;42.656;23.312;2023-02-22T00:26:25;94578.19;;;6.30;54.97
7170;BME280;3626;42.656;23.312;2023-02-22T00:26:33;94577.38;;;6.30;54.91
7170;BME280;3626;42.656;23.312;2023-02-22T00:26:38;94583.56;;;6.27;55.05
7170;BME280;3626;42.656;23.312;2023-02-22T00:26:44;94582.78;;;6.26;54.99
7170;BME280;3626;42.656;23.312;2023-02-22T00:26:52;94581.16;;;6.25;55.19
7170;BME280;3626;42.656;23.312;2023-02-22T00:26:59;94577.00;;;6.24;55.16
7170;BME280;3626;42.656;23.312;2023-02-22T00:27:07;94572.50;;;6.26;55.29
7170;BME280;3626;42.656;23.312;2023-02-22T00:27:13;94579.41;;;6.26;55.34
7170;BME280;3626;42.656;23.312;2023-02-22T00:27:19;94582.78;;;6.26;55.20
7170;BME280;3626;42.656;23.312;2023-02-22T00:27:25;94587.91;;;6.26;55.03
7170;BME280;3626;42.656;23.312;2023-02-22T00:27:31;94575.09;;;6.26;55.08
7170;BME280;3626;42.656;23.312;2023-02-22T00:27:36;94578.44;;;6.27;55.23
7170;BME280;3626;42.656;23.312;2023-02-22T00:27:42;94576.84;;;6.26;55.24
7170;BME280;3626;42.656;23.312;2023-02-22T00:27:49;94579.41;;;6.26;55.47
7170;BME280;3626;42.656;23.312;2023-02-22T00:27:57;94583.72;;;6.25;55.48
7170;BME280;3626;42.656;23.312;2023-02-22T00:28:04;94581.97;;;6.26;55.04
7170;BME280;3626;42.656;23.312;2023-02-22T00:28:10;94581.16;;;6.25;55.36
7170;BME280;3626;42.656;23.312;2023-02-22T00:28:16;94579.56;;;6.24;55.25
7170;BME280;3626;42.656;23.312;2023-02-22T00:28:23;94580.34;;;6.25;55.33
7170;BME280;3626;42.656;23.312;2023-02-22T00:28:29;94580.34;;;6.25;55.45
7170;BME280;3626;42.656;23.312;2023-02-22T00:28:35;94584.00;;;6.22;55.50
7170;BME280;3626;42.656;23.312;2023-02-22T00:28:41;94579.03;;;6.21;55.55
7170;BME280;3626;42.656;23.312;2023-02-22T00:28:48;94584.16;;;6.21;55.61
7170;BME280;3626;42.656;23.312;2023-02-22T00:28:55;94581.59;;;6.21;55.62
7170;BME280;3626;42.656;23.312;2023-02-22T00:29:01;94589.28;;;6.21;55.48
7170;BME280;3626;42.656;23.312;2023-02-22T00:29:07;94584.16;;;6.21;55.55
7170;BME280;3626;42.656;23.312;2023-02-22T00:29:15;94580.78;;;6.20;55.36
7170;BME280;3626;42.656;23.312;2023-02-22T00:29:21;94585.75;;;6.22;55.47
7170;BME280;3626;42.656;23.312;2023-02-22T00:29:29;94582.38;;;6.21;55.59
7170;BME280;3626;42.656;23.312;2023-02-22T00:29:43;94581.44;;;6.22;55.71
7170;BME280;3626;42.656;23.312;2023-02-22T00:29:49;94588.16;;;6.23;55.31
7170;BME280;3626;42.656;23.312;2023-02-22T00:29:54;94583.03;;;6.23;55.50
7170;BME280;3626;42.656;23.312;2023-02-22T00:30:00;94583.03;;;6.23;55.39
7170;BME280;3626;42.656;23.312;2023-02-22T00:30:07;94580.47;;;6.23;55.53
7170;BME280;3626;42.656;23.312;2023-02-22T00:30:15;94577.13;;;6.23;55.73
7170;BME280;3626;42.656;23.312;2023-02-22T00:30:25;94581.28;;;6.24;55.30
7170;BME280;3626;42.656;23.312;2023-02-22T00:30:31;94578.72;;;6.24;55.39
7170;BME280;3626;42.656;23.312;2023-02-22T00:30:38;94579.56;;;6.24;55.71
7170;BME280;3626;42.656;23.312;2023-02-22T00:30:44;94581.97;;;6.26;55.61
7170;BME280;3626;42.656;23.312;2023-02-22T00:30:52;94579.41;;;6.26;55.47
7170;BME280;3626;42.656;23.312;2023-02-22T00:30:59;94581.97;;;6.26;55.27
7170;BME280;3626;42.656;23.312;2023-02-22T00:31:05;94583.56;;;6.27;55.04
7170;BME280;3626;42.656;23.312;2023-02-22T00:31:11;94584.38;;;6.28;55.36
7170;BME280;3626;42.656;23.312;2023-02-22T00:31:17;94576.56;;;6.29;55.62
7170;BME280;3626;42.656;23.312;2023-02-22T00:31:23;94576.56;;;6.29;55.30
7170;BME280;3626;42.656;23.312;2023-02-22T00:31:29;94583.28;;;6.30;55.41
7170;BME280;3626;42.656;23.312;2023-02-22T00:31:36;94570.47;;;6.30;55.60
7170;BME280;3626;42.656;23.312;2023-02-22T00:31:42;94568.72;;;6.31;55.62
7170;BME280;3626;42.656;23.312;2023-02-22T00:31:47;94580.75;;;6.30;55.35
7170;BME280;3626;42.656;23.312;2023-02-22T00:31:53;94579.13;;;6.29;55.19
7170;BME280;3626;42.656;23.312;2023-02-22T00:31:59;94580.75;;;6.30;55.46
7170;BME280;3626;42.656;23.312;2023-02-22T00:32:05;94574.13;;;6.28;55.36
7170;BME280;3626;42.656;23.312;2023-02-22T00:32:10;94571.56;;;6.28;55.48
7170;BME280;3626;42.656;23.312;2023-02-22T00:32:16;94572.38;;;6.28;55.15
7170;BME280;3626;42.656;23.312;2023-02-22T00:32:22;94574.94;;;6.28;55.33
7170;BME280;3626;42.656;23.312;2023-02-22T00:32:28;94576.69;;;6.28;55.49
7170;BME280;3626;42.656;23.312;2023-02-22T00:32:35;94573.31;;;6.27;55.48
7170;BME280;3626;42.656;23.312;2023-02-22T00:32:41;94585.19;;;6.28;55.58
7170;BME280;3626;42.656;23.312;2023-02-22T00:32:48;94581.97;;;6.26;55.79
7170;BME280;3626;42.656;23.312;2023-02-22T00:32:55;94576.03;;;6.25;55.45
7170;BME280;3626;42.656;23.312;2023-02-22T00:33:01;94579.56;;;6.24;55.29
7170;BME280;3626;42.656;23.312;2023-02-22T00:33:11;94578.88;;;6.22;55.66
7170;BME280;3626;42.656;23.312;2023-02-22T00:33:17;94585.75;;;6.22;55.84
7170;BME280;3626;42.656;23.312;2023-02-22T00:33:23;94577.25;;;6.21;55.70
7170;BME280;3626;42.656;23.312;2023-02-22T00:33:29;94578.06;;;6.22;55.58
7170;BME280;3626;42.656;23.312;2023-02-22T00:33:37;94575.50;;;6.22;55.51
7170;BME280;3626;42.656;23.312;2023-02-22T00:33:45;94578.06;;;6.22;55.58
7170;BME280;3626;42.656;23.312;2023-02-22T00:33:50;94583.19;;;6.22;55.58
7170;BME280;3626;42.656;23.312;2023-02-22T00:33:56;94580.78;;;6.20;55.55
7170;BME280;3626;42.656;23.312;2023-02-22T00:34:03;94576.59;;;6.19;55.82
7170;BME280;3626;42.656;23.312;2023-02-22T00:34:12;94577.53;;;6.18;55.65
7170;BME280;3626;42.656;23.312;2023-02-22T00:34:18;94578.50;;;6.17;55.61
7170;BME280;3626;42.656;23.312;2023-02-22T00:34:24;94582.81;;;6.17;55.81
7170;BME280;3626;42.656;23.312;2023-02-22T00:34:30;94579.28;;;6.18;55.50
7170;BME280;3626;42.656;23.312;2023-02-22T00:34:36;94572.56;;;6.17;55.67
7170;BME280;3626;42.656;23.312;2023-02-22T00:34:42;94575.94;;;6.17;55.77
7170;BME280;3626;42.656;23.312;2023-02-22T00:34:51;94579.28;;;6.18;55.86
7170;BME280;3626;42.656;23.312;2023-02-22T00:34:58;94571.59;;;6.18;55.79
7170;BME280;3626;42.656;23.312;2023-02-22T00:35:04;94575.94;;;6.17;55.60
7170;BME280;3626;42.656;23.312;2023-02-22T00:35:13;94576.19;;;6.14;55.83
7170;BME280;3626;42.656;23.312;2023-02-22T00:35:21;94578.75;;;6.14;56.04
7170;BME280;3626;42.656;23.312;2023-02-22T00:35:29;94579.56;;;6.15;55.86
7170;BME280;3626;42.656;23.312;2023-02-22T00:35:36;94577.00;;;6.15;56.02
7170;BME280;3626;42.656;23.312;2023-02-22T00:35:43;94576.88;;;6.16;56.15
7170;BME280;3626;42.656;23.312;2023-02-22T00:35:50;94579.44;;;6.16;56.00
7170;BME280;3626;42.656;23.312;2023-02-22T00:35:55;94575.94;;;6.17;56.24
7170;BME280;3626;42.656;23.312;2023-02-22T00:36:02;94579.28;;;6.18;55.90
7170;BME280;3626;42.656;23.312;2023-02-22T00:36:09;94582.81;;;6.17;56.34
7170;BME280;3626;42.656;23.312;2023-02-22T00:36:15;94580.38;;;6.15;56.24
7170;BME280;3626;42.656;23.312;2023-02-22T00:36:21;94581.16;;;6.16;56.20
7170;BME280;3626;42.656;23.312;2023-02-22T00:36:27;94574.44;;;6.15;56.28
7170;BME280;3626;42.656;23.312;2023-02-22T00:36:32;94580.25;;;6.17;56.31
7170;BME280;3626;42.656;23.312;2023-02-22T00:36:44;94577.81;;;6.15;56.22
7170;BME280;3626;42.656;23.312;2023-02-22T00:36:49;94578.75;;;6.14;56.21
7170;BME280;3626;42.656;23.312;2023-02-22T00:36:57;94575.41;;;6.14;56.27
7170;BME280;3626;42.656;23.312;2023-02-22T00:37:07;94582.28;;;6.13;56.33
7170;BME280;3626;42.656;23.312;2023-02-22T00:37:12;94575.41;;;6.14;56.33
7170;BME280;3626;42.656;23.312;2023-02-22T00:37:19;94577.16;;;6.13;56.12
7170;BME280;3626;42.656;23.312;2023-02-22T00:37:25;94577.16;;;6.13;56.20
7170;BME280;3626;42.656;23.312;2023-02-22T00:37:31;94576.19;;;6.14;56.44
7170;BME280;3626;42.656;23.312;2023-02-22T00:37:37;94579.56;;;6.15;56.22
7170;BME280;3626;42.656;23.312;2023-02-22T00:37:47;94577.81;;;6.15;56.36
7170;BME280;3626;42.656;23.312;2023-02-22T00:37:54;94577.00;;;6.15;56.59
7170;BME280;3626;42.656;23.312;2023-02-22T00:38:01;94576.06;;;6.16;56.41
7170;BME280;3626;42.656;23.312;2023-02-22T00:38:07;94571.75;;;6.16;56.25
7170;BME280;3626;42.656;23.312;2023-02-22T00:38:14;94578.63;;;6.16;56.24
7170;BME280;3626;42.656;23.312;2023-02-22T00:38:22;94574.31;;;6.16;56.36
7170;BME280;3626;42.656;23.312;2023-02-22T00:38:28;94571.88;;;6.15;56.29
7170;BME280;3626;42.656;23.312;2023-02-22T00:38:35;94576.34;;;6.13;56.36